createdAt,value
2023-05-11T00:00:36.696Z,14.34
2023-05-11T00:04:01.855Z,14.37
2023-05-11T00:07:26.965Z,14.4
2023-05-11T00:10:52.118Z,14.41
2023-05-11T00:14:17.285Z,14.39
2023-05-11T00:17:42.505Z,14.37
2023-05-11T00:21:07.578Z,14.29
2023-05-11T00:24:32.718Z,14.22
2023-05-11T00:27:57.883Z,14.16
2023-05-11T00:31:23.137Z,14.13
2023-05-11T00:34:48.212Z,14.09
2023-05-11T00:38:13.296Z,14.06
2023-05-11T00:41:38.454Z,14.04
2023-05-11T00:45:03.589Z,14.03
2023-05-11T00:48:28.691Z,14
2023-05-11T00:51:53.852Z,13.97
2023-05-11T00:55:18.984Z,13.95
2023-05-11T00:58:44.154Z,13.91
2023-05-11T01:02:09.316Z,13.88
2023-05-11T01:05:34.487Z,13.83
2023-05-11T01:08:59.649Z,13.85
2023-05-11T01:12:24.763Z,13.89
2023-05-11T01:17:01.638Z,13.95
2023-05-11T01:20:26.777Z,14
2023-05-11T01:23:51.965Z,14.03
2023-05-11T01:27:17.174Z,14.03
2023-05-11T01:30:42.313Z,14.05
2023-05-11T01:34:07.531Z,14.07
2023-05-11T01:37:32.695Z,14.12
2023-05-11T01:40:57.898Z,14.13
2023-05-11T01:44:23.122Z,14.14
2023-05-11T01:47:48.337Z,14.16
2023-05-11T01:51:13.519Z,14.18
2023-05-11T01:54:38.694Z,14.16
2023-05-11T01:58:03.870Z,14.14
2023-05-11T02:01:29.114Z,14.13
2023-05-11T02:04:54.248Z,14.13
2023-05-11T02:08:19.408Z,14.15
2023-05-11T02:11:44.596Z,14.13
2023-05-11T02:15:09.802Z,14.13
2023-05-11T02:18:35.048Z,14.11
2023-05-11T02:22:00.151Z,14.1
2023-05-11T02:25:25.360Z,14.08
2023-05-11T02:28:50.596Z,14.08
2023-05-11T02:32:15.779Z,14.11
2023-05-11T02:35:41.004Z,14.13
2023-05-11T02:39:06.177Z,14.12
2023-05-11T02:42:31.363Z,14.12
2023-05-11T02:45:56.512Z,14.11
2023-05-11T02:49:21.699Z,14.12
2023-05-11T02:52:46.902Z,14.1
2023-05-11T02:56:12.069Z,14.11
2023-05-11T02:59:37.267Z,14.11
2023-05-11T03:03:02.495Z,14.11
2023-05-11T03:06:27.625Z,14.11
2023-05-11T03:09:52.807Z,14.1
2023-05-11T03:13:17.964Z,14.08
2023-05-11T03:16:43.163Z,14.09
2023-05-11T03:20:08.330Z,14.13
2023-05-11T03:23:33.493Z,14.17
2023-05-11T03:26:58.726Z,14.19
2023-05-11T03:30:23.883Z,14.21
2023-05-11T03:33:49.037Z,14.25
2023-05-11T03:37:14.218Z,14.28
2023-05-11T03:40:39.408Z,14.27
2023-05-11T03:44:04.610Z,14.24
2023-05-11T03:47:29.767Z,14.23
2023-05-11T03:50:54.945Z,14.25
2023-05-11T03:54:20.142Z,14.25
2023-05-11T03:57:45.317Z,14.29
2023-05-11T04:01:10.526Z,14.3
2023-05-11T04:04:35.712Z,14.31
2023-05-11T04:08:00.855Z,14.33
2023-05-11T04:11:26.027Z,14.34
2023-05-11T04:14:51.227Z,14.37
2023-05-11T04:18:16.451Z,14.34
2023-05-11T04:21:41.615Z,14.36
2023-05-11T04:25:06.819Z,14.31
2023-05-11T04:28:32.005Z,14.28
2023-05-11T04:31:57.331Z,14.28
2023-05-11T04:35:22.423Z,14.26
2023-05-11T04:38:47.582Z,14.25
2023-05-11T04:42:12.787Z,14.2
2023-05-11T04:45:37.969Z,14.18
2023-05-11T04:49:03.138Z,14.19
2023-05-11T04:52:28.333Z,14.15
2023-05-11T04:55:53.470Z,14.15
2023-05-11T04:59:18.664Z,14.13
2023-05-11T05:02:43.888Z,14.14
2023-05-11T05:06:09.053Z,14.13
2023-05-11T05:09:34.288Z,14.14
2023-05-11T05:12:59.491Z,14.19
2023-05-11T05:16:24.711Z,14.21
2023-05-11T05:19:49.878Z,14.25
2023-05-11T05:23:15.047Z,14.28
2023-05-11T05:26:40.238Z,14.34
2023-05-11T05:30:05.406Z,14.37
2023-05-11T05:33:30.594Z,14.41
2023-05-11T05:36:55.798Z,14.43
2023-05-11T05:40:21.138Z,14.46
2023-05-11T05:43:46.216Z,14.51
2023-05-11T05:47:11.339Z,14.54
2023-05-11T05:50:36.563Z,14.55
2023-05-11T05:54:01.774Z,14.56
2023-05-11T05:57:26.952Z,14.59
2023-05-11T06:00:52.210Z,14.59
2023-05-11T06:04:17.695Z,14.62
2023-05-11T06:07:43.098Z,14.61
2023-05-11T06:11:07.853Z,14.6
2023-05-11T06:14:33.085Z,14.6
2023-05-11T06:17:58.377Z,14.62
2023-05-11T06:21:23.529Z,14.65
2023-05-11T06:24:48.740Z,14.66
2023-05-11T06:28:13.961Z,14.67
2023-05-11T06:31:39.149Z,14.73
2023-05-11T06:35:04.346Z,14.78
2023-05-11T06:38:29.519Z,14.83
2023-05-11T06:41:55.959Z,14.9
2023-05-11T06:45:19.946Z,14.96
2023-05-11T06:48:45.069Z,14.97
2023-05-11T06:52:10.293Z,14.97
2023-05-11T06:55:35.473Z,14.99
2023-05-11T06:59:00.706Z,15.01
2023-05-11T07:02:25.918Z,15.05
2023-05-11T07:05:51.104Z,15.09
2023-05-11T07:09:16.312Z,15.15
2023-05-11T07:12:41.517Z,15.22
2023-05-11T07:16:06.720Z,15.25
2023-05-11T07:19:31.972Z,15.25
2023-05-11T07:22:57.149Z,15.26
2023-05-11T07:26:23.707Z,15.28
2023-05-11T07:29:48.882Z,15.29
2023-05-11T07:33:14.092Z,15.31
2023-05-11T07:36:39.288Z,15.34
2023-05-11T07:40:04.577Z,15.38
2023-05-11T07:43:29.713Z,15.41
2023-05-11T07:46:54.880Z,15.43
2023-05-11T07:50:21.624Z,15.48
2023-05-11T07:53:45.246Z,15.52
2023-05-11T07:57:10.465Z,15.55
2023-05-11T08:00:35.703Z,15.54
2023-05-11T08:04:00.927Z,15.5
2023-05-11T08:07:26.086Z,15.47
2023-05-11T08:10:51.242Z,15.45
2023-05-11T08:14:16.451Z,15.45
2023-05-11T08:17:41.711Z,15.48
2023-05-11T08:21:06.912Z,15.54
2023-05-11T08:24:32.109Z,15.63
2023-05-11T08:27:57.347Z,15.69
2023-05-11T08:31:22.668Z,15.75
2023-05-11T08:34:48.019Z,15.81
2023-05-11T08:38:13.127Z,15.82
2023-05-11T08:41:38.498Z,15.84
2023-05-11T08:45:03.670Z,15.86
2023-05-11T08:48:28.858Z,15.87
2023-05-11T08:51:54.147Z,15.73
2023-05-11T08:55:19.382Z,15.63
2023-05-11T08:58:44.460Z,15.55
2023-05-11T09:02:09.839Z,15.48
2023-05-11T09:05:35.098Z,15.42
2023-05-11T09:09:00.263Z,15.4
2023-05-11T09:12:25.444Z,15.44
2023-05-11T09:15:50.620Z,15.42
2023-05-11T09:19:15.827Z,15.44
2023-05-11T09:22:41.032Z,15.47
2023-05-11T09:26:06.242Z,15.57
2023-05-11T09:29:31.435Z,15.68
2023-05-11T09:32:56.708Z,15.81
2023-05-11T09:36:21.863Z,15.95
2023-05-11T09:43:12.397Z,16.09
2023-05-11T09:46:37.677Z,16.120001
2023-05-11T09:50:02.891Z,16.190001
2023-05-11T09:53:28.094Z,16.219999
2023-05-11T09:56:53.351Z,16.25
2023-05-11T10:00:18.591Z,16.299999
2023-05-11T10:03:43.865Z,16.299999
2023-05-11T10:07:09.033Z,16.33
2023-05-11T10:10:34.259Z,16.41
2023-05-11T10:13:59.468Z,16.469999
2023-05-11T10:17:24.837Z,16.530001
2023-05-11T10:20:50.011Z,16.530001
2023-05-11T10:24:15.692Z,16.49
2023-05-11T10:27:40.506Z,16.43
2023-05-11T10:31:05.732Z,16.34
2023-05-11T10:34:31.011Z,16.34
2023-05-11T10:37:56.267Z,16.4
2023-05-11T10:41:21.504Z,16.51
2023-05-11T10:44:46.753Z,16.629999
2023-05-11T10:48:11.977Z,16.77
2023-05-11T10:51:37.257Z,16.92
2023-05-11T10:55:02.481Z,17.040001
2023-05-11T10:58:27.755Z,17.040001
2023-05-11T11:01:53.102Z,17.030001
2023-05-11T11:05:18.498Z,16.99
2023-05-11T11:08:43.677Z,17.030001
2023-05-11T11:12:08.919Z,17.059999
2023-05-11T11:15:34.172Z,17.15
2023-05-11T11:18:59.433Z,17.26
2023-05-11T11:22:24.744Z,17.280001
2023-05-11T11:25:50.038Z,17.17
2023-05-11T11:29:15.317Z,17.01
2023-05-11T11:32:40.614Z,16.709999
2023-05-11T11:36:05.849Z,16.440001
2023-05-11T11:39:31.133Z,16.33
2023-05-11T11:42:56.494Z,16.309999
2023-05-11T11:46:21.735Z,16.32
2023-05-11T11:49:46.996Z,16.41
2023-05-11T11:53:12.280Z,16.52
2023-05-11T11:56:37.577Z,16.639999
2023-05-11T12:00:02.898Z,16.780001
2023-05-11T12:03:28.247Z,17.01
2023-05-11T12:06:53.466Z,17.219999
2023-05-11T12:10:18.761Z,17.290001
2023-05-11T12:13:44.054Z,17.27
2023-05-11T12:17:10.071Z,17.26
2023-05-11T12:20:35.398Z,17.33
2023-05-11T12:24:00.720Z,17.370001
2023-05-11T12:27:26.007Z,17.5
2023-05-11T12:30:51.418Z,17.690001
2023-05-11T12:34:16.770Z,17.9
2023-05-11T12:37:42.020Z,18.110001
2023-05-11T12:41:07.353Z,18.27
2023-05-11T12:44:32.693Z,18.309999
2023-05-11T12:47:58.042Z,18.309999
2023-05-11T12:51:23.328Z,18.209999
2023-05-11T12:54:48.616Z,18.02
2023-05-11T12:58:13.950Z,17.860001
2023-05-11T13:01:39.275Z,17.68
2023-05-11T13:05:04.520Z,17.459999
2023-05-11T13:08:29.827Z,17.290001
2023-05-11T13:11:55.093Z,17.190001
2023-05-11T13:15:20.569Z,17.110001
2023-05-11T13:18:45.770Z,17.049999
2023-05-11T13:22:11.038Z,17.01
2023-05-11T13:25:36.342Z,17.01
2023-05-11T13:29:10.532Z,17.049999
2023-05-11T13:32:27.011Z,17.16
2023-05-11T13:35:52.333Z,17.25
2023-05-11T13:39:17.655Z,17.32
2023-05-11T13:42:43.061Z,17.379999
2023-05-11T13:46:08.362Z,17.41
2023-05-11T13:49:33.706Z,17.41
2023-05-11T13:52:58.979Z,17.42
2023-05-11T13:56:24.276Z,17.370001
2023-05-11T13:59:49.698Z,17.360001
2023-05-11T14:03:14.956Z,17.34
2023-05-11T14:06:40.184Z,17.32
2023-05-11T14:10:05.599Z,17.280001
2023-05-11T14:13:30.899Z,17.24
2023-05-11T14:16:56.235Z,17.23
2023-05-11T14:20:21.540Z,17.25
2023-05-11T14:23:57.977Z,17.190001
2023-05-11T14:27:12.112Z,17.17
2023-05-11T14:30:37.414Z,17.15
2023-05-11T14:34:02.703Z,17.18
2023-05-11T14:37:28.010Z,17.25
2023-05-11T14:40:53.326Z,17.23
2023-05-11T14:44:18.621Z,17.18
2023-05-11T14:47:46.752Z,17.190001
2023-05-11T14:51:12.104Z,17.190001
2023-05-11T14:54:37.344Z,17.17
2023-05-11T14:58:02.839Z,17.139999
2023-05-11T15:01:28.682Z,17.09
2023-05-11T15:04:54.011Z,17.059999
2023-05-11T15:08:28.800Z,17.040001
2023-05-11T15:11:44.744Z,17
2023-05-11T15:46:07.780Z,14.58
2023-05-11T15:49:32.894Z,15.54
2023-05-11T15:52:58.199Z,15.73
2023-05-11T15:56:23.452Z,15.92
2023-05-11T15:59:48.778Z,16.08
2023-05-11T16:03:14.311Z,16.219999
2023-05-11T16:06:39.377Z,16.34
2023-05-11T16:10:04.957Z,16.42
2023-05-11T16:13:38.786Z,16.48
2023-05-11T16:17:04.160Z,16.549999
2023-05-11T16:20:29.446Z,16.57
2023-05-11T16:23:54.659Z,16.610001
2023-05-11T16:27:19.919Z,16.639999
2023-05-11T16:30:45.211Z,16.65
2023-05-11T16:34:10.565Z,16.629999
2023-05-11T16:37:35.880Z,16.639999
2023-05-11T16:41:01.206Z,16.67
2023-05-11T16:44:26.488Z,16.700001
2023-05-11T16:47:51.816Z,16.73
2023-05-11T16:51:17.051Z,16.780001
2023-05-11T16:54:42.435Z,16.780001
2023-05-11T16:58:07.740Z,16.780001
2023-05-11T17:01:33.177Z,16.77
2023-05-11T17:04:58.463Z,16.74
2023-05-11T17:08:23.739Z,16.719999
2023-05-11T17:11:49.064Z,16.700001
2023-05-11T17:15:14.374Z,16.65
2023-05-11T17:18:39.688Z,16.629999
2023-05-11T17:22:04.965Z,16.610001
2023-05-11T17:25:30.209Z,16.6
2023-05-11T17:28:55.502Z,16.6
2023-05-11T17:32:20.831Z,16.57
2023-05-11T17:35:46.013Z,16.52
2023-05-11T17:39:11.276Z,16.49
2023-05-11T17:42:36.512Z,16.440001
2023-05-11T17:46:01.898Z,16.43
2023-05-11T17:49:26.965Z,16.379999
2023-05-11T17:52:52.209Z,16.35
2023-05-11T17:56:17.440Z,16.32
2023-05-11T17:59:42.674Z,16.290001
2023-05-11T18:03:08.001Z,16.26
2023-05-11T18:06:33.198Z,16.23
2023-05-11T18:09:58.403Z,16.16
2023-05-11T18:13:23.613Z,16.1
2023-05-11T18:16:48.858Z,16.07
2023-05-11T18:20:14.098Z,16.049999
2023-05-11T18:23:39.329Z,16.01
2023-05-11T18:27:04.523Z,15.97
2023-05-11T18:30:29.795Z,15.93
2023-05-11T18:33:55.068Z,15.88
2023-05-11T18:37:20.382Z,15.85
2023-05-11T18:40:45.591Z,15.82
2023-05-11T18:44:10.799Z,15.78
2023-05-11T18:47:36.084Z,15.7
2023-05-11T18:51:01.291Z,15.65
2023-05-11T18:54:26.636Z,15.57
2023-05-11T18:57:51.797Z,15.51
2023-05-11T19:01:17.079Z,15.45
2023-05-11T19:04:42.260Z,15.37
2023-05-11T19:08:07.478Z,15.31
2023-05-11T19:11:32.793Z,15.26
2023-05-11T19:14:57.965Z,15.2
2023-05-11T19:18:23.195Z,15.16
2023-05-11T19:21:48.397Z,15.12
2023-05-11T19:25:13.676Z,15.06
2023-05-11T19:28:38.961Z,15
2023-05-11T19:32:04.180Z,14.94
2023-05-11T19:35:29.374Z,14.91
2023-05-11T19:38:54.592Z,14.87
2023-05-11T19:42:23.528Z,14.82
2023-05-11T19:45:45.174Z,14.77
2023-05-11T19:49:10.728Z,14.7
2023-05-11T19:52:35.896Z,14.63
2023-05-11T19:56:01.121Z,14.58
2023-05-11T19:59:26.317Z,14.52
2023-05-11T20:02:51.571Z,14.46
2023-05-11T20:06:16.709Z,14.4
2023-05-11T20:09:41.896Z,14.28
2023-05-11T20:13:07.107Z,14.15
2023-05-11T20:16:32.336Z,14.06
2023-05-11T20:19:57.484Z,14.03
2023-05-11T20:23:22.656Z,14.04
2023-05-11T20:26:47.852Z,14.06
2023-05-11T20:30:13.018Z,14.08
2023-05-11T20:37:03.422Z,14.12
2023-05-11T20:40:28.562Z,14.18
2023-05-11T20:43:53.764Z,14.22
2023-05-11T20:47:18.973Z,14.25
2023-05-11T20:50:44.138Z,14.23
2023-05-11T20:54:09.339Z,14.19
2023-05-11T20:57:34.550Z,14.13
2023-05-11T21:00:59.744Z,14.08
2023-05-11T21:04:24.881Z,14.04
2023-05-11T21:07:50.056Z,14.01
2023-05-11T21:11:15.345Z,14
2023-05-11T21:14:40.421Z,13.99
2023-05-11T21:18:05.624Z,14.01
2023-05-11T21:21:30.770Z,13.98
2023-05-11T21:24:55.955Z,14
2023-05-11T21:28:21.152Z,13.97
2023-05-11T21:31:46.327Z,13.97
2023-05-11T21:35:11.514Z,14
2023-05-11T21:38:36.719Z,13.97
2023-05-11T21:42:01.882Z,13.95
2023-05-11T21:45:27.084Z,13.92
2023-05-11T21:48:52.252Z,13.95
2023-05-11T21:52:17.444Z,13.96
2023-05-11T21:55:42.624Z,13.98
2023-05-11T21:59:07.808Z,13.97
2023-05-11T22:02:33.070Z,13.97
2023-05-11T22:05:58.180Z,13.97
2023-05-11T22:09:23.332Z,13.94
2023-05-11T22:12:48.520Z,13.92
2023-05-11T22:16:13.702Z,13.89
2023-05-11T22:19:38.887Z,13.85
2023-05-11T22:23:04.052Z,13.8
2023-05-11T22:26:29.227Z,13.77
2023-05-11T22:29:54.404Z,13.74
2023-05-11T22:33:19.594Z,13.77
2023-05-11T22:36:44.803Z,13.82
2023-05-11T22:40:09.962Z,13.85
2023-05-11T22:43:35.133Z,13.8
2023-05-11T22:47:00.314Z,13.75
2023-05-11T22:50:26.105Z,13.68
2023-05-11T22:53:51.302Z,13.65
2023-05-11T22:57:16.450Z,13.65
2023-05-11T23:00:41.612Z,13.64
2023-05-11T23:04:06.812Z,13.64
2023-05-11T23:07:31.985Z,13.66
2023-05-11T23:10:57.184Z,13.7
2023-05-11T23:14:22.323Z,13.77
2023-05-11T23:17:47.600Z,13.81
2023-05-11T23:21:12.664Z,13.85
2023-05-11T23:24:37.840Z,13.89
2023-05-11T23:28:03.045Z,13.91
2023-05-11T23:31:28.209Z,13.91
2023-05-11T23:34:53.371Z,13.92
2023-05-11T23:38:18.555Z,13.89
2023-05-11T23:41:43.744Z,13.83
2023-05-11T23:45:08.935Z,13.78
2023-05-11T23:48:34.082Z,13.75
2023-05-11T23:51:59.253Z,13.72
2023-05-11T23:55:24.456Z,13.67
2023-05-11T23:58:49.628Z,13.66
